Time;durP1;ratioP1;P1;durP2;ratioP2;P2;SDS_P1;SDS_P2;PMS_P1;PMS_P2;Temp;Humidity;BMP_temperature;BMP_pressure;BME280_temperature;BME280_humidity;BME280_pressure;Samples;Min_cycle;Max_cycle;Signal;HPM_P1;HPM_P2
2024/01/28 00:00:27;;;;;;;33.63;17.27;;;1.30;99.90;;;;;;2097287;28;20020;-69
2024/01/28 00:01:27;;;;;;;34.95;16.35;;;1.30;99.90;;;;;;2101281;28;20561;-70
2024/01/28 00:02:28;;;;;;;39.83;17.48;;;1.30;99.90;;;;;;2097857;28;20115;-70
2024/01/28 00:03:28;;;;;;;36.05;16.67;;;1.30;99.90;;;;;;2100801;28;20032;-74
2024/01/28 00:04:29;;;;;;;36.75;16.85;;;1.20;99.90;;;;;;2102203;28;20050;-69
2024/01/28 00:05:29;;;;;;;33.30;17.00;;;1.20;99.90;;;;;;2102191;28;20543;-68
2024/01/28 00:06:30;;;;;;;38.10;16.98;;;1.20;99.90;;;;;;2102609;28;20141;-70
2024/01/28 00:07:30;;;;;;;35.20;16.83;;;1.20;99.90;;;;;;2101895;28;20043;-83
2024/01/28 00:08:31;;;;;;;37.50;16.48;;;1.20;99.90;;;;;;2097378;28;20394;-81
2024/01/28 00:09:31;;;;;;;39.13;17.42;;;1.10;99.90;;;;;;2102177;28;20024;-82
2024/01/28 00:10:33;;;;;;;40.20;17.45;;;1.10;99.90;;;;;;2094125;28;20024;-83
2024/01/28 00:11:33;;;;;;;40.00;18.45;;;1.10;99.90;;;;;;2097316;28;20585;-82
2024/01/28 00:12:34;;;;;;;39.58;17.63;;;1.10;99.90;;;;;;2092866;28;20029;-82
2024/01/28 00:13:34;;;;;;;36.80;18.42;;;1.10;99.90;;;;;;2098597;28;20029;-83
2024/01/28 00:14:35;;;;;;;41.17;19.10;;;1.10;99.90;;;;;;2096824;28;20025;-84
2024/01/28 00:15:36;;;;;;;40.13;21.27;;;1.00;99.90;;;;;;2095481;28;20792;-82
2024/01/28 00:16:36;;;;;;;46.90;25.90;;;1.00;99.90;;;;;;2094891;28;20062;-83
2024/01/28 00:17:37;;;;;;;48.67;29.10;;;1.00;99.90;;;;;;2099334;28;20092;-81
2024/01/28 00:18:37;;;;;;;55.92;31.30;;;1.00;99.90;;;;;;2095699;28;20097;-82
2024/01/28 00:19:38;;;;;;;43.35;26.27;;;1.00;99.90;;;;;;2101917;28;20029;-83
2024/01/28 00:20:38;;;;;;;44.67;25.58;;;1.00;99.90;;;;;;2097457;28;20028;-81
2024/01/28 00:21:39;;;;;;;52.97;25.92;;;0.90;99.90;;;;;;2096740;28;20042;-83
2024/01/28 00:22:39;;;;;;;48.85;25.48;;;1.00;99.90;;;;;;2101117;28;20072;-81
2024/01/28 00:23:40;;;;;;;56.35;30.42;;;0.90;99.90;;;;;;2095350;28;20098;-81
2024/01/28 00:24:40;;;;;;;53.72;29.58;;;1.00;99.90;;;;;;2105688;28;20047;-83
2024/01/28 00:25:41;;;;;;;50.38;26.98;;;1.00;99.90;;;;;;2103369;28;20036;-83
2024/01/28 00:26:42;;;;;;;48.08;24.85;;;1.00;99.90;;;;;;2098992;28;20036;-82
2024/01/28 00:27:42;;;;;;;49.55;25.20;;;1.00;99.90;;;;;;2095335;28;20024;-82
2024/01/28 00:28:43;;;;;;;46.80;23.20;;;0.90;99.90;;;;;;2088338;28;20035;-82
2024/01/28 00:29:43;;;;;;;47.58;22.65;;;0.90;99.90;;;;;;2093535;28;20517;-82
2024/01/28 00:30:44;;;;;;;44.53;21.75;;;0.80;99.90;;;;;;2093381;28;20029;-82
2024/01/28 00:31:44;;;;;;;43.95;21.33;;;0.80;99.90;;;;;;2099047;28;20016;-80
2024/01/28 00:32:45;;;;;;;46.47;21.55;;;0.80;99.90;;;;;;2105720;28;20024;-81
2024/01/28 00:33:45;;;;;;;42.53;20.98;;;0.80;99.90;;;;;;2095264;28;20648;-82
2024/01/28 00:34:46;;;;;;;46.60;21.40;;;0.80;99.90;;;;;;2093280;28;20028;-83
2024/01/28 00:35:47;;;;;;;46.13;21.23;;;0.80;99.90;;;;;;2097999;28;20033;-83
2024/01/28 00:36:48;;;;;;;46.15;21.80;;;0.70;99.90;;;;;;2097617;28;20028;-81
2024/01/28 00:37:48;;;;;;;47.67;21.15;;;0.70;99.90;;;;;;2094250;28;20036;-82
2024/01/28 00:38:49;;;;;;;51.28;22.63;;;0.70;99.90;;;;;;2098174;28;20120;-82
2024/01/28 00:39:49;;;;;;;50.00;25.85;;;0.70;99.90;;;;;;2094096;28;20036;-84
2024/01/28 00:40:50;;;;;;;48.88;25.52;;;0.70;99.90;;;;;;2101749;28;20035;-82
2024/01/28 00:41:51;;;;;;;51.22;23.77;;;0.70;99.90;;;;;;2101861;28;20042;-80
2024/01/28 00:42:51;;;;;;;41.80;22.77;;;0.70;99.90;;;;;;2094912;28;20032;-82
2024/01/28 00:43:52;;;;;;;52.67;22.67;;;0.70;99.90;;;;;;2107433;28;20032;-84
2024/01/28 00:44:52;;;;;;;42.90;21.70;;;0.70;99.90;;;;;;2098337;28;20055;-83
2024/01/28 00:45:53;;;;;;;42.90;21.05;;;0.70;99.90;;;;;;2093659;28;20032;-82
2024/01/28 00:46:55;;;;;;;43.78;21.77;;;0.70;99.90;;;;;;2092814;28;20036;-82
2024/01/28 00:47:55;;;;;;;47.13;22.00;;;0.60;99.90;;;;;;2105007;28;20637;-82
2024/01/28 00:48:56;;;;;;;45.90;21.73;;;0.60;99.90;;;;;;2093388;28;20021;-81
2024/01/28 00:49:57;;;;;;;49.90;22.17;;;0.60;99.90;;;;;;2097894;28;20029;-81
2024/01/28 00:50:58;;;;;;;49.13;22.10;;;0.60;99.90;;;;;;2105679;28;20099;-81
2024/01/28 00:51:59;;;;;;;46.78;20.75;;;0.60;99.90;;;;;;2096611;28;20036;-81
2024/01/28 00:53:00;;;;;;;45.15;21.70;;;0.60;99.90;;;;;;2101952;28;20024;-82
2024/01/28 00:54:00;;;;;;;46.15;22.30;;;0.70;99.90;;;;;;2102593;28;20526;-82
2024/01/28 00:55:01;;;;;;;45.88;20.88;;;0.60;99.90;;;;;;2095288;28;20032;-81
2024/01/28 00:56:02;;;;;;;46.90;20.98;;;0.60;99.90;;;;;;2106491;28;20039;-82
2024/01/28 00:57:03;;;;;;;43.88;20.65;;;0.60;99.90;;;;;;2106095;28;20493;-82
2024/01/28 00:58:03;;;;;;;47.88;21.48;;;0.50;99.90;;;;;;2097214;28;20136;-81
2024/01/28 00:59:04;;;;;;;43.60;20.35;;;0.50;99.90;;;;;;2101360;28;20029;-83
2024/01/28 01:00:06;;;;;;;46.70;20.85;;;0.60;99.90;;;;;;2094578;28;20032;-81
2024/01/28 01:01:07;;;;;;;46.42;21.13;;;0.50;99.90;;;;;;2104230;28;20112;-83
2024/01/28 01:02:07;;;;;;;48.33;21.30;;;0.50;99.90;;;;;;2106464;28;20500;-83
2024/01/28 01:03:08;;;;;;;46.55;20.73;;;0.50;99.90;;;;;;2095437;28;20035;-81
2024/01/28 01:04:08;;;;;;;47.38;20.17;;;0.50;99.90;;;;;;2100164;28;20103;-83
2024/01/28 01:05:09;;;;;;;46.88;20.58;;;0.60;99.90;;;;;;2102448;28;20020;-83
2024/01/28 01:06:09;;;;;;;42.50;20.95;;;0.60;99.90;;;;;;2094968;28;20048;-83
2024/01/28 01:07:10;;;;;;;40.72;20.08;;;0.60;99.90;;;;;;2096751;28;20043;-84
2024/01/28 01:08:11;;;;;;;44.58;19.63;;;0.50;99.90;;;;;;2104221;28;20073;-82
2024/01/28 01:09:11;;;;;;;44.88;19.70;;;0.50;99.90;;;;;;2100724;28;20016;-82
2024/01/28 01:10:12;;;;;;;46.22;19.25;;;0.50;99.90;;;;;;2100701;28;20040;-82
2024/01/28 01:11:12;;;;;;;42.35;20.15;;;0.50;99.90;;;;;;2103090;28;20042;-83
2024/01/28 01:12:13;;;;;;;45.30;20.98;;;0.50;99.90;;;;;;2097730;28;20116;-83
2024/01/28 01:13:14;;;;;;;43.33;20.52;;;0.50;99.90;;;;;;2108428;28;20080;-82
2024/01/28 01:14:15;;;;;;;50.42;19.95;;;0.50;99.90;;;;;;2102762;28;20035;-82
2024/01/28 01:15:15;;;;;;;48.47;21.08;;;0.50;99.90;;;;;;2097320;28;20040;-82
2024/01/28 01:16:17;;;;;;;43.53;20.67;;;0.40;99.90;;;;;;2097504;28;20120;-81
2024/01/28 01:17:17;;;;;;;45.60;20.40;;;0.40;99.90;;;;;;2101286;28;20623;-82
2024/01/28 01:18:18;;;;;;;43.83;19.52;;;0.50;99.90;;;;;;2097684;28;20048;-81
2024/01/28 01:19:19;;;;;;;43.90;20.42;;;0.50;99.90;;;;;;2098048;28;20056;-81
2024/01/28 01:20:19;;;;;;;45.78;19.25;;;0.50;99.90;;;;;;2103191;28;20068;-81
2024/01/28 01:21:20;;;;;;;42.25;19.00;;;0.40;99.90;;;;;;2101742;28;20020;-82
2024/01/28 01:22:20;;;;;;;40.33;18.73;;;0.40;99.90;;;;;;2096979;28;20097;-84
2024/01/28 01:23:21;;;;;;;39.00;18.48;;;0.40;99.90;;;;;;2098200;28;20032;-82
2024/01/28 01:24:22;;;;;;;38.83;18.30;;;0.40;99.90;;;;;;2101144;28;20109;-82
2024/01/28 01:25:22;;;;;;;38.35;17.35;;;0.40;99.90;;;;;;2097267;28;20044;-82
2024/01/28 01:26:23;;;;;;;34.13;17.25;;;0.40;99.90;;;;;;2097263;28;20039;-83
2024/01/28 01:27:23;;;;;;;39.25;17.83;;;0.40;99.90;;;;;;2097764;28;20111;-83
2024/01/28 01:28:31;;;;;;;37.95;17.30;;;0.40;99.90;;;;;;2097104;28;20079;-82
2024/01/28 01:29:31;;;;;;;36.78;17.33;;;0.30;99.90;;;;;;2101686;28;20109;-82
2024/01/28 01:30:32;;;;;;;41.95;17.45;;;0.30;99.90;;;;;;2097592;28;20029;-83
2024/01/28 01:31:32;;;;;;;37.20;16.98;;;0.30;99.90;;;;;;2092934;28;20029;-83
2024/01/28 01:32:35;;;;;;;34.22;16.92;;;0.20;99.90;;;;;;2101933;28;20120;-82
2024/01/28 01:33:36;;;;;;;39.80;17.23;;;0.20;99.90;;;;;;2100935;28;20023;-80
2024/01/28 01:34:37;;;;;;;38.35;17.65;;;0.20;99.90;;;;;;2093349;28;20013;-82
2024/01/28 01:35:38;;;;;;;35.20;16.88;;;0.30;99.90;;;;;;2098015;28;20032;-82
2024/01/28 01:36:42;;;;;;;38.35;16.67;;;0.30;99.90;;;;;;2101694;28;20031;-82
2024/01/28 01:37:43;;;;;;;34.55;16.85;;;0.30;99.90;;;;;;2096946;28;20024;-82
2024/01/28 01:38:43;;;;;;;36.95;17.23;;;0.30;99.90;;;;;;2092513;28;20029;-83
2024/01/28 01:39:44;;;;;;;33.85;17.42;;;0.40;99.90;;;;;;2092880;28;20108;-80
2024/01/28 01:40:44;;;;;;;42.15;18.10;;;0.30;99.90;;;;;;2097469;28;20042;-81
2024/01/28 01:41:45;;;;;;;38.13;17.70;;;0.30;99.90;;;;;;2094094;28;20067;-82
2024/01/28 01:42:45;;;;;;;63.90;33.20;;;0.30;99.90;;;;;;2100669;28;20478;-82
2024/01/28 01:43:46;;;;;;;41.53;19.73;;;0.30;99.90;;;;;;2101339;28;20031;-82
2024/01/28 01:44:46;;;;;;;38.67;20.00;;;0.30;99.90;;;;;;2098379;28;20063;-82
2024/01/28 01:45:48;;;;;;;41.60;19.15;;;0.30;99.90;;;;;;2100234;28;20491;-81
2024/01/28 01:46:48;;;;;;;41.72;18.63;;;0.20;99.90;;;;;;2101504;28;20027;-81
2024/01/28 01:47:49;;;;;;;42.22;18.73;;;0.30;99.90;;;;;;2093168;28;20099;-83
2024/01/28 01:48:50;;;;;;;43.17;18.95;;;0.30;99.90;;;;;;2094430;28;20502;-82
2024/01/28 01:49:52;;;;;;;43.15;21.63;;;0.30;99.90;;;;;;2095886;28;20490;-82
2024/01/28 01:50:53;;;;;;;41.92;20.20;;;0.30;99.90;;;;;;2097353;28;20024;-82
2024/01/28 01:51:54;;;;;;;39.53;19.40;;;0.40;99.90;;;;;;2095230;28;20025;-82
2024/01/28 01:52:54;;;;;;;52.17;19.75;;;0.30;99.90;;;;;;2104026;28;20035;-81
2024/01/28 01:53:55;;;;;;;42.97;19.83;;;0.40;99.90;;;;;;2098820;28;20107;-82
2024/01/28 01:54:56;;;;;;;44.08;19.58;;;0.30;99.90;;;;;;2101306;28;20036;-83
2024/01/28 01:55:56;;;;;;;42.40;18.65;;;0.40;99.90;;;;;;2105118;28;20111;-82
2024/01/28 01:56:57;;;;;;;38.92;19.42;;;0.40;99.90;;;;;;2104842;28;20037;-83
2024/01/28 01:57:58;;;;;;;36.63;18.50;;;0.40;99.90;;;;;;2105496;28;20098;-82
2024/01/28 01:58:58;;;;;;;33.33;17.67;;;0.40;99.90;;;;;;2099552;28;20559;-83
2024/01/28 01:59:59;;;;;;;39.88;18.98;;;0.40;99.90;;;;;;2102702;28;20042;-82
2024/01/28 02:01:00;;;;;;;36.92;18.48;;;0.40;99.90;;;;;;2097959;28;20033;-82
2024/01/28 02:02:03;;;;;;;42.28;18.92;;;0.40;99.90;;;;;;2098969;28;20433;-82
2024/01/28 02:03:04;;;;;;;40.20;18.70;;;0.40;99.90;;;;;;2099782;28;20033;-80
2024/01/28 02:04:04;;;;;;;41.33;19.00;;;0.40;99.90;;;;;;2104402;28;20794;-81
2024/01/28 02:05:06;;;;;;;38.20;18.73;;;0.40;99.90;;;;;;2099766;28;20024;-81
2024/01/28 02:06:06;;;;;;;40.60;18.73;;;0.40;99.90;;;;;;2097421;28;20032;-81
2024/01/28 02:07:07;;;;;;;41.08;18.55;;;0.40;99.90;;;;;;2094894;28;20078;-81
2024/01/28 02:08:07;;;;;;;37.72;18.58;;;0.40;99.90;;;;;;2100983;28;20023;-83
2024/01/28 02:09:09;;;;;;;40.17;18.58;;;0.30;99.90;;;;;;2100693;28;20039;-82
2024/01/28 02:10:10;;;;;;;35.75;18.40;;;0.40;99.90;;;;;;2104415;28;20477;-81
2024/01/28 02:11:10;;;;;;;38.03;18.38;;;0.30;99.90;;;;;;2101585;28;20091;-81
2024/01/28 02:12:11;;;;;;;41.97;18.10;;;0.30;99.90;;;;;;2097069;28;20020;-82
2024/01/28 02:13:11;;;;;;;35.97;17.08;;;0.30;99.90;;;;;;2104181;28;20440;-82
2024/01/28 02:14:22;;;;;;;37.85;17.35;;;0.30;99.90;;;;;;2107199;28;20061;-81
2024/01/28 02:15:23;;;;;;;43.45;18.42;;;0.40;99.90;;;;;;2109280;28;20024;-81
2024/01/28 02:16:25;;;;;;;34.85;17.35;;;0.30;99.90;;;;;;2100460;28;20039;-81
2024/01/28 02:17:26;;;;;;;39.53;17.30;;;0.40;99.90;;;;;;2101261;28;20036;-82
2024/01/28 02:18:26;;;;;;;37.67;17.15;;;0.30;99.90;;;;;;2106572;28;20055;-82
2024/01/28 02:19:27;;;;;;;37.45;17.23;;;0.40;99.90;;;;;;2112704;28;20022;-83
2024/01/28 02:20:28;;;;;;;39.42;18.42;;;0.40;99.90;;;;;;2105854;28;20025;-79
2024/01/28 02:21:28;;;;;;;40.55;16.98;;;0.40;99.90;;;;;;2111512;28;20021;-83
2024/01/28 02:22:29;;;;;;;38.08;17.00;;;0.40;99.90;;;;;;2112017;28;20075;-82
2024/01/28 02:23:30;;;;;;;38.85;17.58;;;0.30;99.90;;;;;;2099922;28;20024;-81
2024/01/28 02:24:30;;;;;;;37.05;16.90;;;0.30;99.90;;;;;;2102184;28;20039;-83
2024/01/28 02:25:31;;;;;;;39.60;17.35;;;0.40;99.90;;;;;;2103985;28;20054;-82
2024/01/28 02:26:32;;;;;;;33.40;16.60;;;0.30;99.90;;;;;;2098639;28;20107;-83
2024/01/28 02:27:35;;;;;;;38.58;17.23;;;0.30;99.90;;;;;;2105020;28;20023;-83
2024/01/28 02:28:35;;;;;;;35.70;16.85;;;0.40;99.90;;;;;;2103336;28;20031;-82
2024/01/28 02:29:36;;;;;;;35.33;17.27;;;0.40;99.90;;;;;;2094974;28;20063;-83
2024/01/28 02:30:36;;;;;;;41.22;17.20;;;0.30;99.90;;;;;;2098085;28;20048;-83
2024/01/28 02:31:37;;;;;;;38.90;16.85;;;0.30;99.90;;;;;;2104335;28;20028;-82
2024/01/28 02:32:46;;;;;;;37.30;17.23;;;0.30;99.90;;;;;;2102393;28;20032;-83
2024/01/28 02:33:46;;;;;;;33.88;16.98;;;0.30;99.90;;;;;;2101098;28;20081;-84
2024/01/28 02:34:47;;;;;;;40.38;17.25;;;0.30;99.90;;;;;;2107746;28;20460;-82
2024/01/28 02:35:47;;;;;;;36.50;16.55;;;0.30;99.90;;;;;;2097701;28;20052;-82
2024/01/28 02:36:48;;;;;;;33.85;16.33;;;0.30;99.90;;;;;;2102987;28;20028;-83
2024/01/28 02:37:48;;;;;;;36.58;16.50;;;0.30;99.90;;;;;;2100587;28;20023;-82
2024/01/28 02:38:49;;;;;;;38.60;16.63;;;0.30;99.90;;;;;;2097361;28;20483;-81
2024/01/28 02:39:49;;;;;;;37.10;16.83;;;0.30;99.90;;;;;;2095255;28;20032;-81
2024/01/28 02:40:55;;;;;;;36.53;16.33;;;0.30;99.90;;;;;;2093857;28;20032;-74
2024/01/28 02:41:55;;;;;;;34.30;15.45;;;0.30;99.90;;;;;;2097783;28;20580;-74
2024/01/28 02:42:56;;;;;;;38.08;16.80;;;0.30;99.90;;;;;;2092878;28;20024;-71
2024/01/28 02:43:57;;;;;;;32.35;15.93;;;0.30;99.90;;;;;;2097174;28;20036;-73
2024/01/28 02:44:58;;;;;;;36.42;15.90;;;0.30;99.90;;;;;;2101869;28;20389;-75
2024/01/28 02:45:58;;;;;;;37.20;15.63;;;0.30;99.90;;;;;;2094351;28;20268;-74
2024/01/28 02:47:01;;;;;;;32.90;15.40;;;0.30;99.90;;;;;;2101295;28;20078;-74
2024/01/28 02:48:01;;;;;;;35.75;15.30;;;0.30;99.90;;;;;;2099048;28;20024;-75
2024/01/28 02:49:02;;;;;;;31.63;14.88;;;0.20;99.90;;;;;;2101860;28;20059;-74
2024/01/28 02:50:03;;;;;;;33.25;15.57;;;0.20;99.90;;;;;;2094664;28;20025;-74
2024/01/28 02:51:04;;;;;;;39.83;15.75;;;0.20;99.90;;;;;;2099240;28;20044;-73
2024/01/28 02:52:04;;;;;;;37.60;15.55;;;0.20;99.90;;;;;;2096358;28;20028;-72
2024/01/28 02:53:05;;;;;;;33.35;15.75;;;0.20;99.90;;;;;;2097115;28;20048;-73
2024/01/28 02:54:05;;;;;;;32.13;14.98;;;0.20;99.90;;;;;;2098423;28;20442;-73
2024/01/28 02:55:06;;;;;;;31.85;14.95;;;0.20;99.90;;;;;;2093782;28;20044;-73
2024/01/28 02:56:07;;;;;;;31.45;15.18;;;0.10;99.90;;;;;;2101609;28;20106;-74
2024/01/28 02:57:07;;;;;;;33.65;14.98;;;0.10;99.90;;;;;;2095262;28;20774;-73
2024/01/28 02:58:08;;;;;;;35.72;15.60;;;0.10;99.90;;;;;;2098165;28;20523;-74
2024/01/28 02:59:13;;;;;;;34.08;14.75;;;0.10;99.90;;;;;;2104944;28;20020;-73
2024/01/28 03:00:14;;;;;;;36.28;15.05;;;0.10;99.90;;;;;;2093744;28;20037;-73
2024/01/28 03:01:14;;;;;;;29.83;14.25;;;0.10;99.90;;;;;;2097653;28;20032;-73
2024/01/28 03:02:16;;;;;;;31.98;14.73;;;0.10;99.90;;;;;;2093590;28;20120;-73
2024/01/28 03:03:17;;;;;;;32.70;14.38;;;0.10;99.90;;;;;;2093523;28;20036;-73
2024/01/28 03:04:17;;;;;;;36.28;15.07;;;0.10;99.90;;;;;;2093399;28;20020;-74
2024/01/28 03:05:18;;;;;;;32.30;13.73;;;0.10;99.90;;;;;;2103576;28;20035;-75
2024/01/28 03:06:19;;;;;;;32.88;14.07;;;0.10;99.90;;;;;;2099572;28;20024;-73
2024/01/28 03:07:19;;;;;;;35.85;14.60;;;0.10;99.90;;;;;;2096834;28;20120;-74
2024/01/28 03:08:20;;;;;;;32.42;14.82;;;0.10;99.90;;;;;;2101724;28;20446;-73
2024/01/28 03:09:20;;;;;;;34.70;14.35;;;0.10;99.90;;;;;;2098351;28;20033;-73
2024/01/28 03:10:21;;;;;;;34.35;14.63;;;0.10;99.90;;;;;;2096165;28;20145;-73
2024/01/28 03:11:21;;;;;;;28.42;13.82;;;0.10;99.90;;;;;;2093447;28;20024;-73
2024/01/28 03:12:22;;;;;;;32.42;14.32;;;0.10;99.90;;;;;;2100569;28;20030;-74
2024/01/28 03:13:22;;;;;;;32.67;13.98;;;0.10;99.90;;;;;;2096629;28;20032;-74
2024/01/28 03:14:23;;;;;;;33.80;14.32;;;0.10;99.90;;;;;;2097508;28;20024;-74
2024/01/28 03:15:23;;;;;;;34.30;14.15;;;0.10;99.90;;;;;;2100569;28;20026;-74
2024/01/28 03:16:24;;;;;;;29.00;14.40;;;0.10;99.90;;;;;;2098468;28;20129;-74
2024/01/28 03:17:25;;;;;;;31.88;14.98;;;0.10;99.90;;;;;;2100444;28;20032;-74
2024/01/28 03:18:25;;;;;;;29.55;13.65;;;0.10;99.90;;;;;;2097067;28;20491;-74
2024/01/28 03:19:26;;;;;;;33.60;13.85;;;0.00;99.90;;;;;;2101765;28;20045;-73
2024/01/28 03:20:27;;;;;;;32.20;13.95;;;0.00;99.90;;;;;;2102669;28;20028;-73
2024/01/28 03:21:27;;;;;;;32.80;13.57;;;0.00;99.90;;;;;;2096018;28;20100;-74
2024/01/28 03:22:28;;;;;;;30.48;13.75;;;0.00;99.90;;;;;;2093569;28;20016;-73
2024/01/28 03:23:29;;;;;;;35.42;14.77;;;0.00;99.90;;;;;;2098871;28;20511;-74
2024/01/28 03:24:29;;;;;;;35.58;14.07;;;0.00;99.90;;;;;;2097721;28;20043;-74
2024/01/28 03:25:31;;;;;;;35.78;14.02;;;0.00;99.90;;;;;;2094193;28;20512;-74
2024/01/28 03:26:34;;;;;;;28.10;13.45;;;-0.10;99.90;;;;;;2093495;28;20020;-74
2024/01/28 03:27:35;;;;;;;33.80;14.27;;;-0.10;99.90;;;;;;2093510;28;20021;-73
2024/01/28 03:28:36;;;;;;;31.38;13.93;;;-0.10;99.90;;;;;;2093561;28;20025;-74
2024/01/28 03:29:36;;;;;;;33.28;13.40;;;-0.10;99.90;;;;;;2103562;28;20024;-73
2024/01/28 03:30:37;;;;;;;29.30;13.43;;;-0.10;99.90;;;;;;2093115;28;20040;-73
2024/01/28 03:31:38;;;;;;;31.75;13.48;;;-0.10;99.90;;;;;;2096981;28;20038;-73
2024/01/28 03:32:39;;;;;;;28.90;13.60;;;-0.10;99.90;;;;;;2101504;28;20038;-73
2024/01/28 03:33:40;;;;;;;27.33;13.50;;;-0.10;99.90;;;;;;2101930;28;20112;-73
2024/01/28 03:34:40;;;;;;;29.08;13.40;;;-0.10;99.90;;;;;;2101341;28;20039;-73
2024/01/28 03:35:41;;;;;;;29.77;13.80;;;-0.10;99.90;;;;;;2105593;28;20023;-74
2024/01/28 03:36:41;;;;;;;29.33;13.23;;;-0.10;99.90;;;;;;2093373;28;20051;-71
2024/01/28 03:37:42;;;;;;;32.75;14.57;;;-0.10;99.90;;;;;;2105906;28;20080;-72
2024/01/28 03:38:42;;;;;;;30.85;14.50;;;-0.20;99.90;;;;;;2096688;28;20028;-74
2024/01/28 03:39:43;;;;;;;34.33;14.57;;;-0.20;99.90;;;;;;2096568;28;20052;-74
2024/01/28 03:40:44;;;;;;;35.00;15.30;;;-0.20;99.90;;;;;;2093497;28;20056;-71
2024/01/28 03:41:44;;;;;;;31.95;14.80;;;-0.20;99.90;;;;;;2101614;28;20016;-70
2024/01/28 03:42:45;;;;;;;29.23;14.40;;;-0.20;99.90;;;;;;2093706;28;20047;-71
2024/01/28 03:43:46;;;;;;;34.55;15.50;;;-0.20;99.90;;;;;;2104392;28;20089;-71
2024/01/28 03:44:46;;;;;;;32.60;15.25;;;-0.20;99.90;;;;;;2093436;28;20039;-71
2024/01/28 03:45:47;;;;;;;34.78;15.57;;;-0.20;99.90;;;;;;2092645;28;20078;-71
2024/01/28 03:46:48;;;;;;;28.88;15.00;;;-0.20;99.90;;;;;;2092788;28;20107;-71
2024/01/28 03:47:48;;;;;;;34.53;15.60;;;-0.30;99.90;;;;;;2093364;28;20056;-70
2024/01/28 03:48:49;;;;;;;37.45;15.93;;;-0.30;99.90;;;;;;2099586;28;20064;-71
2024/01/28 03:49:49;;;;;;;33.13;15.68;;;-0.30;99.90;;;;;;2100932;28;20611;-71
2024/01/28 03:50:50;;;;;;;34.22;15.93;;;-0.30;99.90;;;;;;2093333;28;20055;-71
2024/01/28 03:51:50;;;;;;;35.47;17.00;;;-0.30;99.90;;;;;;2101227;28;20023;-71
2024/01/28 03:52:51;;;;;;;38.97;16.83;;;-0.30;99.90;;;;;;2093442;28;20019;-71
2024/01/28 03:53:52;;;;;;;36.50;16.95;;;-0.30;99.90;;;;;;2093267;28;20029;-71
2024/01/28 03:54:52;;;;;;;32.67;15.77;;;-0.30;99.90;;;;;;2101097;28;20073;-71
2024/01/28 03:55:53;;;;;;;35.97;16.52;;;-0.40;99.90;;;;;;2094652;28;20017;-71
2024/01/28 03:56:53;;;;;;;35.78;16.45;;;-0.40;99.90;;;;;;2099475;28;20033;-70
2024/01/28 03:57:54;;;;;;;36.30;16.85;;;-0.40;99.90;;;;;;2101764;28;20076;-71
2024/01/28 03:58:54;;;;;;;33.97;16.13;;;-0.40;99.90;;;;;;2097975;28;20024;-71
2024/01/28 03:59:55;;;;;;;37.42;16.00;;;-0.40;99.90;;;;;;2098960;28;20510;-71
2024/01/28 04:00:55;;;;;;;36.33;16.08;;;-0.40;99.90;;;;;;2097259;28;20028;-72
2024/01/28 04:01:56;;;;;;;32.35;16.10;;;-0.40;99.90;;;;;;2096130;28;20029;-71
2024/01/28 04:02:57;;;;;;;33.55;15.45;;;-0.40;99.90;;;;;;2102385;28;20062;-72
2024/01/28 04:03:57;;;;;;;36.05;15.68;;;-0.50;99.90;;;;;;2101266;28;20163;-71
2024/01/28 04:04:58;;;;;;;33.95;15.52;;;-0.50;99.90;;;;;;2092471;28;20029;-72
2024/01/28 04:05:58;;;;;;;34.30;16.35;;;-0.40;99.90;;;;;;2095509;28;20055;-70
2024/01/28 04:06:59;;;;;;;37.47;16.17;;;-0.40;99.90;;;;;;2101219;28;20083;-70
2024/01/28 04:08:00;;;;;;;33.92;15.95;;;-0.40;99.90;;;;;;2098538;28;20029;-71
2024/01/28 04:09:01;;;;;;;34.30;15.38;;;-0.40;99.90;;;;;;2092446;28;20103;-72
2024/01/28 04:10:02;;;;;;;29.42;15.30;;;-0.40;99.90;;;;;;2095654;28;20486;-72
2024/01/28 04:11:05;;;;;;;35.70;15.85;;;-0.40;99.90;;;;;;2098463;28;20031;-71
2024/01/28 04:12:05;;;;;;;38.53;15.98;;;-0.50;99.90;;;;;;2101261;28;20138;-72
2024/01/28 04:13:06;;;;;;;36.00;15.63;;;-0.50;99.90;;;;;;2096848;28;20394;-72
2024/01/28 04:14:06;;;;;;;32.28;15.48;;;-0.50;99.90;;;;;;2097208;28;20398;-72
2024/01/28 04:15:07;;;;;;;32.72;15.25;;;-0.50;99.90;;;;;;2100649;28;20762;-71
2024/01/28 04:16:08;;;;;;;34.30;15.60;;;-0.50;99.90;;;;;;2097280;28;20075;-71
2024/01/28 04:17:08;;;;;;;37.42;16.30;;;-0.50;99.90;;;;;;2099022;28;20037;-72
2024/01/28 04:18:09;;;;;;;36.60;16.13;;;-0.50;99.90;;;;;;2095569;28;20037;-72
2024/01/28 04:19:09;;;;;;;31.23;15.27;;;-0.40;99.90;;;;;;2100872;28;20035;-72
2024/01/28 04:20:10;;;;;;;33.25;14.60;;;-0.50;99.90;;;;;;2098209;28;20627;-72
2024/01/28 04:21:11;;;;;;;33.17;14.35;;;-0.40;99.90;;;;;;2095757;28;20033;-71
2024/01/28 04:22:11;;;;;;;38.22;15.13;;;-0.40;99.90;;;;;;2101340;28;20016;-72
2024/01/28 04:23:12;;;;;;;33.10;15.27;;;-0.40;99.90;;;;;;2094736;28;20510;-72
2024/01/28 04:24:12;;;;;;;41.40;16.60;;;-0.40;99.90;;;;;;2101097;28;20466;-72
2024/01/28 04:25:13;;;;;;;41.83;15.82;;;-0.40;99.90;;;;;;2102141;28;20154;-72
2024/01/28 04:26:14;;;;;;;33.70;15.40;;;-0.40;99.90;;;;;;2100816;28;20052;-72
2024/01/28 04:27:14;;;;;;;32.35;14.85;;;-0.40;99.90;;;;;;2097379;28;20085;-71
2024/01/28 04:28:15;;;;;;;32.15;14.55;;;-0.40;99.90;;;;;;2096272;28;20598;-73
2024/01/28 04:29:15;;;;;;;33.50;15.80;;;-0.40;99.90;;;;;;2100871;28;20071;-72
2024/01/28 04:30:16;;;;;;;38.33;16.58;;;-0.40;99.90;;;;;;2097910;28;20040;-71
2024/01/28 04:31:17;;;;;;;36.75;16.40;;;-0.40;99.90;;;;;;2090766;28;20054;-71
2024/01/28 04:32:17;;;;;;;39.85;17.50;;;-0.40;99.90;;;;;;2101040;28;20028;-72
2024/01/28 04:33:18;;;;;;;33.17;14.57;;;-0.40;99.90;;;;;;2098598;28;20027;-71
2024/01/28 04:34:19;;;;;;;42.33;18.27;;;-0.50;99.90;;;;;;2095108;27;20035;-71
2024/01/28 04:35:19;;;;;;;40.70;18.35;;;-0.50;99.90;;;;;;2093193;28;20298;-70
2024/01/28 04:36:21;;;;;;;36.95;16.65;;;-0.50;99.90;;;;;;2096491;28;20027;-71
2024/01/28 04:37:22;;;;;;;60.38;23.13;;;-0.50;99.90;;;;;;2093544;28;20024;-71
2024/01/28 04:38:22;;;;;;;55.60;21.15;;;-0.50;99.90;;;;;;2099955;28;20031;-71
2024/01/28 04:39:23;;;;;;;73.55;29.40;;;-0.60;99.90;;;;;;2093664;28;20020;-72
2024/01/28 04:40:23;;;;;;;74.60;28.95;;;-0.50;99.90;;;;;;2100886;28;20107;-71
2024/01/28 04:41:24;;;;;;;52.63;21.17;;;-0.50;99.90;;;;;;2104753;28;20077;-71
2024/01/28 04:42:25;;;;;;;47.80;19.98;;;-0.60;99.90;;;;;;2093169;28;20029;-71
2024/01/28 04:43:26;;;;;;;48.10;18.23;;;-0.60;99.90;;;;;;2094640;28;20035;-70
2024/01/28 04:44:27;;;;;;;52.17;20.30;;;-0.60;99.90;;;;;;2096253;28;20020;-71
2024/01/28 04:45:28;;;;;;;40.92;17.55;;;-0.60;99.90;;;;;;2104735;28;20023;-70
2024/01/28 04:46:29;;;;;;;39.92;16.20;;;-0.60;99.90;;;;;;2097916;28;20103;-71
2024/01/28 04:47:29;;;;;;;37.78;16.15;;;-0.60;99.90;;;;;;2092851;28;20032;-71
2024/01/28 04:48:30;;;;;;;40.28;15.60;;;-0.60;99.90;;;;;;2100536;28;20503;-71
2024/01/28 04:49:32;;;;;;;36.83;14.50;;;-0.60;99.90;;;;;;2092923;28;20024;-73
2024/01/28 04:50:33;;;;;;;34.78;14.23;;;-0.60;99.90;;;;;;2092828;28;20025;-70
2024/01/28 04:51:33;;;;;;;36.20;15.43;;;-0.60;99.90;;;;;;2092752;28;20398;-70
2024/01/28 04:52:34;;;;;;;39.47;16.42;;;-0.60;99.90;;;;;;2092706;28;20485;-72
2024/01/28 04:53:34;;;;;;;34.58;16.38;;;-0.60;99.90;;;;;;2092712;28;20032;-71
2024/01/28 04:54:35;;;;;;;37.30;15.18;;;-0.60;99.90;;;;;;2100820;28;20038;-70
2024/01/28 04:55:35;;;;;;;39.42;16.50;;;-0.60;99.90;;;;;;2097879;28;20035;-70
2024/01/28 04:56:36;;;;;;;39.53;15.57;;;-0.60;99.90;;;;;;2099621;28;20033;-71
2024/01/28 04:57:36;;;;;;;39.45;16.63;;;-0.60;99.90;;;;;;2100522;28;20028;-70
2024/01/28 04:58:37;;;;;;;39.13;15.88;;;-0.60;99.90;;;;;;2094255;28;20463;-71
2024/01/28 04:59:38;;;;;;;35.15;14.93;;;-0.60;99.90;;;;;;2100074;28;20052;-71
2024/01/28 05:00:38;;;;;;;36.13;14.10;;;-0.60;99.90;;;;;;2103329;28;20024;-71
2024/01/28 05:01:39;;;;;;;31.02;14.27;;;-0.60;99.90;;;;;;2094441;28;20028;-70
2024/01/28 05:02:39;;;;;;;30.88;13.82;;;-0.60;99.90;;;;;;2101869;28;20031;-72
2024/01/28 05:03:40;;;;;;;30.85;14.60;;;-0.60;99.90;;;;;;2100138;28;20043;-71
2024/01/28 05:04:41;;;;;;;30.48;13.65;;;-0.60;99.90;;;;;;2100784;28;20042;-72
2024/01/28 05:05:42;;;;;;;33.40;13.82;;;-0.70;99.90;;;;;;2092730;28;20051;-70
2024/01/28 05:06:42;;;;;;;34.17;13.82;;;-0.60;99.90;;;;;;2092909;28;20028;-71
2024/01/28 05:07:43;;;;;;;38.30;14.60;;;-0.60;99.90;;;;;;2092720;28;20459;-71
2024/01/28 05:08:43;;;;;;;37.80;15.20;;;-0.60;99.90;;;;;;2094420;28;20020;-71
2024/01/28 05:09:44;;;;;;;37.67;15.05;;;-0.60;99.90;;;;;;2098751;28;20032;-72
2024/01/28 05:10:44;;;;;;;38.35;15.57;;;-0.60;99.90;;;;;;2100952;28;20165;-72